Time;durP1;ratioP1;P1;durP2;ratioP2;P2;SDS_P1;SDS_P2;PMS_P1;PMS_P2;Temp;Humidity;BMP_temperature;BMP_pressure;BME280_temperature;BME280_humidity;BME280_pressure;Samples;Min_cycle;Max_cycle;Signal;HPM_P1;HPM_P2
2021/06/22 00:00:28;;;;;;;10.52;6.45;;;;;;;20.49;84.83;100130.47;5078162;28;20455;-82
2021/06/22 00:03:01;;;;;;;14.25;7.13;;;;;;;20.54;84.77;100135.31;5063313;28;20059;-82
2021/06/22 00:05:32;;;;;;;11.48;6.97;;;;;;;20.43;84.99;100133.75;5069623;28;20448;-82
2021/06/22 00:08:01;;;;;;;13.00;6.75;;;;;;;20.43;85.65;100133.75;5079634;28;20051;-82
2021/06/22 00:10:31;;;;;;;9.80;7.35;;;;;;;20.35;86.47;100137.25;5076165;28;20436;-82
2021/06/22 00:13:04;;;;;;;13.68;7.28;;;;;;;20.38;86.56;100146.78;5087035;28;20123;-82
2021/06/22 00:15:33;;;;;;;12.18;7.70;;;;;;;20.29;87.24;100145.94;5080263;28;20128;-84
2021/06/22 00:18:05;;;;;;;14.77;7.55;;;;;;;20.27;87.73;100139.09;5076629;28;21049;-82
2021/06/22 00:20:42;;;;;;;10.93;7.75;;;;;;;20.31;87.75;100141.28;5093821;28;20130;-82
2021/06/22 00:23:10;;;;;;;13.32;8.18;;;;;;;20.22;88.61;100145.78;5072511;28;20041;-81
2021/06/22 00:25:38;;;;;;;15.13;7.88;;;;;;;20.20;88.94;100145.09;5079065;28;20054;-83
2021/06/22 00:28:20;;;;;;;14.75;7.78;;;;;;;20.21;89.14;100146.75;5058454;28;20062;-82
2021/06/22 00:30:49;;;;;;;11.82;8.65;;;;;;;20.15;90.02;100157.28;5071390;28;20072;-82
2021/06/22 00:33:29;;;;;;;16.27;9.38;;;;;;;20.26;89.43;100162.28;5080612;28;20385;-82
2021/06/22 00:36:01;;;;;;;12.40;8.43;;;;;;;20.36;89.16;100160.34;5062444;28;20253;-79
2021/06/22 00:38:31;;;;;;;11.90;8.48;;;;;;;20.44;88.81;100167.50;5058721;28;20160;-84
2021/06/22 00:41:05;;;;;;;11.20;9.32;;;;;;;20.53;88.70;100166.53;5080134;28;20099;-81
2021/06/22 00:43:32;;;;;;;13.70;8.65;;;;;;;20.60;88.25;100159.53;5073665;28;20059;-82
2021/06/22 00:46:04;;;;;;;17.38;10.88;;;;;;;20.60;88.40;100158.72;5059871;28;20494;-82
2021/06/22 00:48:34;;;;;;;12.45;8.88;;;;;;;20.64;88.19;100149.34;5084636;28;20757;-82
2021/06/22 00:51:07;;;;;;;18.58;9.88;;;;;;;20.71;87.51;100153.88;5081327;28;20032;-82
2021/06/22 00:53:45;;;;;;;13.43;8.23;;;;;;;20.73;87.43;100173.25;5064465;28;20052;-82
2021/06/22 00:56:17;;;;;;;21.95;10.23;;;;;;;20.60;88.43;100183.63;5083240;28;20058;-83
2021/06/22 00:58:49;;;;;;;13.18;8.88;;;;;;;20.61;88.57;100179.09;5049730;28;20373;-82
2021/06/22 01:01:16;;;;;;;15.10;9.50;;;;;;;20.54;88.95;100181.63;5074314;28;20297;-81
2021/06/22 01:03:46;;;;;;;15.30;9.98;;;;;;;20.55;88.90;100182.44;5078203;28;20120;-81
2021/06/22 01:06:21;;;;;;;12.32;9.25;;;;;;;20.49;89.31;100194.66;5082739;28;20128;-82
2021/06/22 01:08:51;;;;;;;13.77;9.50;;;;;;;20.51;89.47;100197.97;5054815;28;20075;-82
2021/06/22 01:11:20;;;;;;;17.77;9.30;;;;;;;20.57;88.91;100210.69;5079495;28;20052;-80
2021/06/22 01:13:52;;;;;;;12.02;8.35;;;;;;;20.56;89.26;100219.72;5049810;28;20585;-84
2021/06/22 01:16:25;;;;;;;13.45;9.13;;;;;;;20.67;88.76;100226.59;5054858;28;20056;-81
2021/06/22 01:19:09;;;;;;;14.63;8.60;;;;;;;20.78;87.72;100228.09;5064017;28;20064;-82
2021/06/22 01:21:38;;;;;;;13.13;8.43;;;;;;;20.73;87.73;100236.63;5054989;28;20071;-84
2021/06/22 01:24:12;;;;;;;14.90;10.10;;;;;;;20.65;88.35;100225.91;5068632;28;20127;-81
2021/06/22 01:26:51;;;;;;;13.32;8.50;;;;;;;20.67;87.75;100229.28;5064568;28;20043;-82
2021/06/22 01:29:21;;;;;;;13.32;8.68;;;;;;;20.62;87.81;100234.25;5056979;28;20124;-84
2021/06/22 01:31:51;;;;;;;14.52;9.30;;;;;;;20.49;88.79;100224.06;5060032;28;20138;-83
2021/06/22 01:34:25;;;;;;;12.07;9.55;;;;;;;20.39;89.12;100212.63;5055094;28;20049;-83
2021/06/22 01:36:54;;;;;;;14.80;9.15;;;;;;;20.30;89.45;100208.25;5053963;28;20067;-82
2021/06/22 01:39:21;;;;;;;11.43;8.77;;;;;;;20.19;90.26;100210.25;5055659;28;20118;-82
2021/06/22 01:41:53;;;;;;;15.98;8.88;;;;;;;20.08;90.98;100207.00;5044935;28;20046;-81
2021/06/22 01:44:34;;;;;;;16.48;9.55;;;;;;;20.08;90.75;100202.50;5062454;28;20584;-82
2021/06/22 01:47:04;;;;;;;19.30;9.27;;;;;;;20.09;90.90;100212.22;5062691;28;20488;-82
2021/06/22 01:49:41;;;;;;;11.75;8.30;;;;;;;20.03;91.15;100218.19;5063469;28;20051;-81
2021/06/22 01:52:14;;;;;;;11.02;9.25;;;;;;;20.10;90.83;100219.22;5046547;28;20319;-83
2021/06/22 01:54:53;;;;;;;15.35;10.52;;;;;;;20.13;90.75;100224.25;5031383;28;20045;-82
2021/06/22 01:57:25;;;;;;;18.17;9.85;;;;;;;20.09;90.65;100222.91;5065662;28;20048;-82
2021/06/22 02:00:11;;;;;;;16.77;9.98;;;;;;;20.04;90.88;100230.56;5051168;28;20047;-81
2021/06/22 02:03:06;;;;;;;18.73;10.82;;;;;;;20.02;91.22;100229.06;5047954;28;20047;-83
2021/06/22 02:05:35;;;;;;;20.30;10.60;;;;;;;19.95;91.46;100234.22;5077490;28;20094;-86
2021/06/22 02:08:03;;;;;;;14.90;10.60;;;;;;;19.94;91.10;100232.50;5070899;28;20052;-86
2021/06/22 02:10:33;;;;;;;15.38;10.70;;;;;;;20.02;91.15;100239.75;5091642;28;20040;-87
2021/06/22 02:13:05;;;;;;;12.52;10.15;;;;;;;19.97;91.57;100250.91;5083790;28;20408;-84
2021/06/22 02:15:35;;;;;;;13.73;9.82;;;;;;;19.91;91.45;100262.25;5083683;28;20043;-86
2021/06/22 02:18:04;;;;;;;17.98;9.98;;;;;;;19.72;92.70;100273.97;5086914;28;20040;-83
2021/06/22 02:20:44;;;;;;;13.13;10.23;;;;;;;19.72;92.65;100277.50;5070555;28;20528;-83
2021/06/22 02:23:13;;;;;;;13.90;9.90;;;;;;;19.80;91.91;100283.88;5069290;28;20039;-83
2021/06/22 02:25:42;;;;;;;17.17;10.48;;;;;;;19.75;91.34;100284.34;5082114;28;20048;-83
2021/06/22 02:28:14;;;;;;;15.30;10.95;;;;;;;19.63;91.33;100277.59;5052831;28;20082;-80
2021/06/22 02:30:43;;;;;;;13.20;11.25;;;;;;;19.52;91.75;100273.31;5074492;28;20066;-84
2021/06/22 02:33:15;;;;;;;18.08;11.80;;;;;;;19.55;91.13;100274.84;5074705;28;20569;-82
2021/06/22 02:35:43;;;;;;;15.73;11.50;;;;;;;19.47;91.54;100281.81;5034901;28;20044;-84
2021/06/22 02:38:11;;;;;;;19.90;12.02;;;;;;;19.45;91.27;100280.28;5069494;28;20127;-82
2021/06/22 02:40:39;;;;;;;26.92;13.55;;;;;;;19.40;90.89;100278.06;5078570;28;20047;-83
2021/06/22 02:43:06;;;;;;;21.08;12.93;;;;;;;19.42;90.75;100285.94;5066343;28;20577;-81
2021/06/22 02:45:35;;;;;;;14.82;11.35;;;;;;;19.45;90.86;100294.47;5067771;28;20054;-85
2021/06/22 02:48:04;;;;;;;18.98;11.70;;;;;;;19.59;90.21;100292.25;5035656;28;20084;-83
2021/06/22 02:50:31;;;;;;;16.08;11.15;;;;;;;19.67;89.27;100293.13;5066078;28;20043;-83
2021/06/22 02:52:58;;;;;;;17.10;11.35;;;;;;;19.59;88.96;100292.25;5064213;28;20128;-81
2021/06/22 02:55:25;;;;;;;15.20;11.43;;;;;;;19.57;89.00;100291.53;5058180;28;20092;-82
2021/06/22 02:57:57;;;;;;;13.90;11.00;;;;;;;19.56;89.27;100306.72;5073816;28;20059;-82
2021/06/22 03:00:27;;;;;;;19.90;11.93;;;;;;;19.56;89.09;100296.06;5069697;28;20039;-82
2021/06/22 03:02:54;;;;;;;14.32;11.30;;;;;;;19.60;88.87;100294.78;5066910;28;20132;-80
2021/06/22 03:05:22;;;;;;;16.75;12.75;;;;;;;19.48;89.50;100299.50;5045063;28;20299;-82
2021/06/22 03:07:50;;;;;;;15.35;12.07;;;;;;;19.62;88.56;100299.94;5058659;28;20076;-82
2021/06/22 03:10:19;;;;;;;18.30;10.82;;;;;;;19.73;88.03;100305.88;5041966;28;20040;-82
2021/06/22 03:12:47;;;;;;;16.73;12.32;;;;;;;19.62;88.37;100295.44;5054799;28;20051;-81
2021/06/22 03:15:15;;;;;;;18.40;12.15;;;;;;;19.65;88.49;100288.97;5077868;28;20044;-82
2021/06/22 03:17:43;;;;;;;20.20;12.70;;;;;;;19.56;89.01;100288.03;5060150;28;20121;-80
2021/06/22 03:20:11;;;;;;;24.63;13.18;;;;;;;19.62;88.57;100284.75;5065975;28;20047;-82
2021/06/22 03:22:38;;;;;;;19.05;13.93;;;;;;;19.60;nan;100288.56;5064490;28;20131;-83
2021/06/22 03:25:08;;;;;;;18.45;12.80;;;;;;;19.67;87.80;100294.97;5066460;28;20036;-82
2021/06/22 03:27:35;;;;;;;20.20;13.57;;;;;;;19.83;86.71;100303.09;5064293;28;20033;-82
2021/06/22 03:30:09;;;;;;;15.25;10.90;;;;;;;19.88;86.04;100303.47;5061326;28;20492;-82
2021/06/22 03:32:37;;;;;;;17.98;12.63;;;;;;;19.79;86.27;100308.91;5085232;28;20047;-81
2021/06/22 03:35:09;;;;;;;17.92;12.43;;;;;;;19.65;86.52;100308.50;5060477;28;20064;-82
2021/06/22 03:37:36;;;;;;;16.98;13.05;;;;;;;19.62;87.14;100319.47;5052065;28;20135;-82
2021/06/22 03:40:06;;;;;;;21.70;11.98;;;;;;;19.63;86.89;100328.31;5067308;28;20076;-80
2021/06/22 03:42:34;;;;;;;20.67;14.80;;;;;;;19.49;87.66;100341.22;5049176;28;20124;-81
2021/06/22 03:45:04;;;;;;;17.88;13.32;;;;;;;19.66;86.55;100336.88;5062075;28;20056;-81
2021/06/22 03:47:32;;;;;;;23.92;15.50;;;;;;;19.58;86.67;100339.44;5066927;28;20032;-82
2021/06/22 03:50:00;;;;;;;20.15;13.65;;;;;;;19.66;86.33;100342.22;5076898;28;20072;-83
2021/06/22 03:52:27;;;;;;;19.20;14.13;;;;;;;19.68;85.77;100344.75;5072427;28;20383;-82
2021/06/22 03:54:54;;;;;;;18.77;14.05;;;;;;;19.62;85.86;100342.69;5061329;28;20044;-81
2021/06/22 03:57:22;;;;;;;17.15;13.73;;;;;;;19.67;85.82;100345.72;5077039;28;20048;-81
2021/06/22 03:59:50;;;;;;;18.98;13.23;;;;;;;19.42;87.19;100348.19;5058556;28;20044;-82
2021/06/22 04:02:18;;;;;;;19.90;14.20;;;;;;;19.38;87.16;100349.47;5057846;28;20049;-81
2021/06/22 04:04:46;;;;;;;17.10;13.80;;;;;;;19.41;86.50;100343.84;5084342;28;20146;-81
2021/06/22 04:07:13;;;;;;;23.60;14.68;;;;;;;19.48;86.10;100341.38;5054986;28;20092;-81
2021/06/22 04:09:40;;;;;;;19.63;14.35;;;;;;;19.42;85.99;100337.50;5037301;28;20044;-82
2021/06/22 04:12:08;;;;;;;19.23;15.18;;;;;;;19.48;85.64;100344.88;5048347;28;20330;-81
2021/06/22 04:14:35;;;;;;;17.13;13.60;;;;;;;19.36;86.41;100347.94;5081429;28;20024;-82
2021/06/22 04:17:03;;;;;;;26.30;14.05;;;;;;;19.48;86.06;100347.53;5056416;28;20246;-82
2021/06/22 04:19:30;;;;;;;20.50;13.63;;;;;;;19.64;84.93;100346.88;5069498;28;20111;-84
2021/06/22 04:21:57;;;;;;;22.13;13.80;;;;;;;19.78;83.80;100352.66;5076610;28;20577;-84
2021/06/22 04:24:24;;;;;;;16.15;12.02;;;;;;;19.67;84.58;100356.41;5079123;28;20080;-81
2021/06/22 04:26:52;;;;;;;21.17;11.50;;;;;;;19.82;83.58;100357.53;5058897;28;20119;-82
2021/06/22 04:29:19;;;;;;;23.25;12.68;;;;;;;19.58;84.70;100359.97;5062019;28;20453;-84
2021/06/22 04:31:47;;;;;;;17.42;14.82;;;;;;;19.47;85.08;100372.56;5052072;28;20040;-82
2021/06/22 04:34:14;;;;;;;18.23;13.95;;;;;;;19.48;85.18;100373.41;5064231;28;20296;-82
2021/06/22 04:36:41;;;;;;;23.20;15.27;;;;;;;19.49;85.09;100372.41;5061591;28;20228;-85
2021/06/22 04:39:08;;;;;;;27.90;16.20;;;;;;;19.49;84.70;100381.25;5062188;28;20058;-81
2021/06/22 04:41:36;;;;;;;22.73;17.17;;;;;;;19.45;85.29;100387.06;5044085;28;20041;-81
2021/06/22 04:44:04;;;;;;;24.45;15.23;;;;;;;19.62;84.68;100380.91;5041797;28;20063;-83
2021/06/22 04:46:31;;;;;;;24.63;16.05;;;;;;;19.77;83.73;100388.34;5055421;28;20041;-83
2021/06/22 04:48:59;;;;;;;28.85;16.63;;;;;;;19.77;83.36;100402.56;5060956;28;20075;-83
2021/06/22 04:51:26;;;;;;;24.17;15.02;;;;;;;19.69;83.70;100402.50;5052144;28;20056;-84
2021/06/22 04:53:53;;;;;;;23.27;16.15;;;;;;;19.53;84.68;100415.66;5044673;28;20463;-84
2021/06/22 04:56:22;;;;;;;25.23;18.13;;;;;;;19.24;85.43;100419.41;5051560;28;20516;-80
2021/06/22 04:58:56;;;;;;;28.17;16.73;;;;;;;19.41;85.14;100428.44;5060143;28;20139;-85
2021/06/22 05:01:24;;;;;;;26.00;17.52;;;;;;;19.46;85.07;100426.97;5068721;28;20056;-82
2021/06/22 05:03:53;;;;;;;37.50;18.50;;;;;;;19.65;84.27;100434.00;5045737;28;20094;-82
2021/06/22 05:06:20;;;;;;;38.63;21.30;;;;;;;19.44;85.03;100436.09;5055790;28;20052;-86
2021/06/22 05:08:48;;;;;;;45.67;23.75;;;;;;;19.24;85.93;100440.75;5060719;28;20428;-82
2021/06/22 05:15:34;;;;;;;55.35;30.35;;;;;;;18.98;87.40;100440.63;5072834;28;20051;-82
2021/06/22 05:18:01;;;;;;;45.22;30.38;;;;;;;18.83;88.53;100432.28;5044832;28;20505;-79
2021/06/22 05:20:32;;;;;;;51.28;29.20;;;;;;;18.74;88.98;100422.53;5055041;28;20420;-86
2021/06/22 05:22:59;;;;;;;49.33;27.00;;;;;;;18.82;88.37;100427.09;5028437;28;20085;-81
2021/06/22 05:25:26;;;;;;;60.35;31.23;;;;;;;18.84;88.03;100433.13;5069433;28;20050;-82
2021/06/22 05:27:54;;;;;;;49.35;26.52;;;;;;;18.83;88.06;100442.13;5051596;28;20567;-81
2021/06/22 05:30:21;;;;;;;45.17;24.58;;;;;;;18.72;88.12;100449.31;5078080;28;20350;-81
2021/06/22 05:32:48;;;;;;;44.63;23.40;;;;;;;18.72;87.42;100451.16;5041674;28;20049;-83
2021/06/22 05:35:18;;;;;;;35.63;21.27;;;;;;;18.64;88.15;100448.34;5057714;28;20491;-81
2021/06/22 05:37:46;;;;;;;41.33;22.05;;;;;;;18.53;88.04;100448.53;5080650;28;20232;-79
2021/06/22 05:40:14;;;;;;;39.58;20.05;;;;;;;18.40;89.32;100455.03;5045519;28;20489;-82
2021/06/22 05:42:42;;;;;;;36.25;21.80;;;;;;;18.42;88.84;100455.72;5039976;28;20049;-80
2021/06/22 05:45:09;;;;;;;31.15;20.50;;;;;;;18.37;88.91;100455.34;5085738;28;20516;-82
2021/06/22 05:47:36;;;;;;;38.97;19.65;;;;;;;18.33;89.05;100458.44;5083092;28;20048;-80
2021/06/22 05:50:04;;;;;;;34.45;20.38;;;;;;;18.26;89.34;100452.81;5072895;28;20050;-79
2021/06/22 05:52:32;;;;;;;36.30;17.88;;;;;;;18.40;89.26;100456.84;5059730;28;20133;-80
2021/06/22 05:54:59;;;;;;;27.80;16.77;;;;;;;18.29;89.25;100457.88;5064016;28;20054;-81
2021/06/22 05:57:26;;;;;;;34.70;15.85;;;;;;;18.13;90.13;100455.78;5053706;28;20060;-81
2021/06/22 05:59:54;;;;;;;30.25;15.50;;;;;;;18.20;90.03;100459.56;5083185;28;20051;-82
2021/06/22 06:02:21;;;;;;;28.77;15.15;;;;;;;18.17;89.92;100461.69;5064146;28;20131;-80
2021/06/22 06:04:48;;;;;;;23.42;14.80;;;;;;;17.98;91.30;100457.22;5056346;28;20515;-80
2021/06/22 06:07:16;;;;;;;30.98;15.38;;;;;;;17.95;90.82;100468.16;5088158;28;20044;-80
2021/06/22 06:09:45;;;;;;;25.25;13.48;;;;;;;18.09;90.68;100470.38;5073221;28;20048;-83
2021/06/22 06:12:13;;;;;;;22.13;13.38;;;;;;;18.09;89.96;100466.88;5086538;28;20128;-82
2021/06/22 06:14:40;;;;;;;25.98;12.38;;;;;;;18.30;89.49;100472.03;5080302;28;20062;-81
2021/06/22 06:17:07;;;;;;;18.80;12.43;;;;;;;18.54;87.63;100477.69;5054270;28;20036;-81
2021/06/22 06:19:35;;;;;;;26.83;12.63;;;;;;;18.44;87.63;100480.41;5081434;28;20057;-80
2021/06/22 06:22:02;;;;;;;23.13;11.38;;;;;;;18.45;87.68;100487.41;5056935;28;20116;-82
2021/06/22 06:24:31;;;;;;;25.20;11.63;;;;;;;18.51;87.22;100493.13;5064096;28;20118;-80
2021/06/22 06:27:03;;;;;;;19.73;10.90;;;;;;;18.54;86.80;100501.69;5045298;28;20052;-81
2021/06/22 06:29:46;;;;;;;19.85;10.23;;;;;;;18.36;87.20;100506.09;5052415;28;20109;-81
2021/06/22 06:32:14;;;;;;;17.95;10.27;;;;;;;18.29;87.48;100510.34;5073854;28;20503;-82
2021/06/22 06:34:42;;;;;;;19.55;10.63;;;;;;;18.36;86.55;100504.25;5053812;28;20449;-81
2021/06/22 06:37:09;;;;;;;13.90;9.57;;;;;;;18.38;86.02;100504.97;5062842;28;20035;-82
2021/06/22 06:39:36;;;;;;;19.08;10.52;;;;;;;18.41;86.01;100504.66;5065108;28;20048;-81
2021/06/22 06:42:04;;;;;;;13.38;10.20;;;;;;;18.36;86.05;100500.75;5034488;28;20044;-83
2021/06/22 06:44:31;;;;;;;18.80;9.80;;;;;;;18.20;87.05;100506.69;5039632;28;20251;-80
2021/06/22 06:46:59;;;;;;;17.35;8.93;;;;;;;18.37;85.71;100513.97;5050403;28;20048;-82
2021/06/22 06:49:28;;;;;;;17.63;9.25;;;;;;;18.30;85.78;100523.50;5082074;28;20105;-80
2021/06/22 06:51:55;;;;;;;13.48;7.03;;;;;;;18.53;84.62;100521.34;5062770;28;20050;-80
2021/06/22 06:54:22;;;;;;;15.25;6.18;;;;;;;18.55;83.67;100524.72;5063798;28;20473;-82
2021/06/22 06:56:50;;;;;;;15.82;6.55;;;;;;;18.32;84.74;100524.19;5069933;28;20603;-80
2021/06/22 06:59:17;;;;;;;15.10;6.40;;;;;;;18.17;85.55;100539.78;5067392;28;20099;-79
2021/06/22 07:01:44;;;;;;;10.98;6.35;;;;;;;18.16;84.90;100543.44;5053016;28;20048;-79
2021/06/22 07:04:12;;;;;;;12.75;6.95;;;;;;;18.22;85.21;100537.53;5090799;28;20040;-82
2021/06/22 07:06:39;;;;;;;8.82;5.28;;;;;;;18.47;83.66;100537.94;5042004;28;20041;-82
2021/06/22 07:09:07;;;;;;;9.82;5.82;;;;;;;18.26;84.30;100542.59;5063094;28;20473;-81
2021/06/22 07:11:36;;;;;;;9.65;5.72;;;;;;;18.34;83.70;100538.22;5050847;28;20126;-82
2021/06/22 07:14:03;;;;;;;12.68;4.95;;;;;;;18.41;83.68;100541.16;5058748;28;20048;-79
2021/06/22 07:16:33;;;;;;;10.55;5.38;;;;;;;18.52;82.70;100546.34;5062621;28;20549;-81
2021/06/22 07:19:00;;;;;;;10.90;5.00;;;;;;;18.73;81.65;100532.81;5071019;28;20052;-82
2021/06/22 07:21:27;;;;;;;12.05;4.93;;;;;;;18.85;80.74;100536.16;5073992;28;20049;-79
2021/06/22 07:23:54;;;;;;;10.32;5.10;;;;;;;19.03;79.76;100544.22;5044057;28;20094;-81
2021/06/22 07:26:34;;;;;;;8.73;4.78;;;;;;;19.03;79.50;100541.56;5047416;28;20068;-80
2021/06/22 07:29:03;;;;;;;13.40;4.75;;;;;;;19.25;78.53;100537.69;5051587;28;20044;-81
2021/06/22 07:31:31;;;;;;;10.90;5.10;;;;;;;19.32;77.32;100534.28;5056733;28;20040;-80
2021/06/22 07:33:58;;;;;;;13.27;5.00;;;;;;;19.48;77.56;100538.94;5043084;28;20487;-80
2021/06/22 07:36:25;;;;;;;6.07;3.95;;;;;;;19.43;76.79;100541.22;5043094;28;20094;-79
2021/06/22 07:38:53;;;;;;;8.43;4.80;;;;;;;19.25;77.60;100535.84;5067177;28;20048;-83
2021/06/22 07:41:21;;;;;;;8.18;4.38;;;;;;;19.29;77.11;100526.56;5030606;28;20870;-80
2021/06/22 07:43:48;;;;;;;11.32;4.60;;;;;;;19.09;78.10;100522.28;5061254;28;20052;-81
2021/06/22 07:46:16;;;;;;;14.60;4.50;;;;;;;18.96;78.65;100511.97;5073237;28;20049;-80
2021/06/22 07:48:45;;;;;;;8.82;4.00;;;;;;;18.90;78.55;100509.88;5060275;28;20101;-80
2021/06/22 07:51:12;;;;;;;10.30;4.68;;;;;;;18.61;80.05;100526.81;5063108;28;20465;-81
2021/06/22 07:53:40;;;;;;;7.88;3.92;;;;;;;18.10;82.12;100536.00;5068674;28;20058;-80
2021/06/22 07:56:07;;;;;;;12.15;5.15;;;;;;;18.32;81.93;100523.34;5048672;28;20139;-78
2021/06/22 07:58:34;;;;;;;9.98;4.07;;;;;;;18.71;79.54;100518.81;5083969;28;20071;-79
2021/06/22 08:01:02;;;;;;;14.32;5.65;;;;;;;18.85;78.47;100523.66;5059794;28;20427;-82
2021/06/22 08:03:29;;;;;;;11.07;4.90;;;;;;;18.85;78.82;100529.00;5034890;28;20062;-78
2021/06/22 08:05:57;;;;;;;11.35;5.00;;;;;;;18.94;78.36;100536.13;5065346;28;20488;-81
2021/06/22 08:08:24;;;;;;;11.13;4.70;;;;;;;18.73;79.07;100535.47;5023100;28;20139;-82
2021/06/22 08:10:54;;;;;;;6.70;5.05;;;;;;;18.59;79.83;100541.25;5047895;28;20153;-82
2021/06/22 08:13:22;;;;;;;16.52;4.78;;;;;;;18.29;81.83;100552.97;5026371;28;20139;-83
2021/06/22 08:15:49;;;;;;;7.68;4.25;;;;;;;18.26;82.10;100542.59;5040560;28;20048;-81
2021/06/22 08:18:16;;;;;;;9.38;3.78;;;;;;;18.16;83.98;100546.09;5058606;28;20041;-80
2021/06/22 08:20:44;;;;;;;10.52;3.10;;;;;;;18.17;82.74;100550.44;5040491;28;20059;-83
2021/06/22 08:23:12;;;;;;;10.30;3.90;;;;;;;18.02;84.50;100553.69;5023508;28;20119;-83
2021/06/22 08:25:40;;;;;;;5.28;3.72;;;;;;;18.26;83.97;100559.41;5054881;28;20044;-82
2021/06/22 08:28:08;;;;;;;8.20;4.20;;;;;;;18.17;84.41;100552.25;5062354;28;20079;-82
2021/06/22 08:30:35;;;;;;;8.52;4.72;;;;;;;18.22;84.88;100556.19;5062730;28;20047;-84
2021/06/22 08:33:04;;;;;;;13.65;5.70;;;;;;;18.21;84.38;100559.00;5049102;28;20064;-81
2021/06/22 08:35:32;;;;;;;8.65;4.93;;;;;;;18.23;85.49;100567.69;5062651;28;20052;-81
2021/06/22 08:37:59;;;;;;;11.48;4.95;;;;;;;17.83;87.44;100566.00;5071743;28;20092;-81
2021/06/22 08:40:27;;;;;;;9.35;5.13;;;;;;;17.78;88.58;100564.72;5062134;28;20053;-82
2021/06/22 08:42:54;;;;;;;12.55;5.53;;;;;;;17.86;88.01;100581.69;5080338;28;20040;-80
2021/06/22 08:45:22;;;;;;;11.18;5.47;;;;;;;17.85;88.26;100576.50;5053431;28;20531;-81
2021/06/22 08:47:50;;;;;;;8.15;5.50;;;;;;;17.75;87.88;100581.81;5051264;28;20074;-79
2021/06/22 08:50:18;;;;;;;12.50;5.45;;;;;;;17.69;88.58;100579.66;5058975;28;20063;-79
2021/06/22 08:52:46;;;;;;;10.23;5.30;;;;;;;17.87;89.62;100587.84;5044520;28;20140;-81
2021/06/22 08:55:33;;;;;;;9.18;5.10;;;;;;;17.83;88.50;100594.44;5067462;28;20048;-80
2021/06/22 08:58:06;;;;;;;12.25;6.63;;;;;;;17.74;88.44;100597.91;5064196;28;20052;-81
2021/06/22 09:00:39;;;;;;;8.38;5.10;;;;;;;17.50;87.58;100604.41;5060280;28;20131;-85
2021/06/22 09:03:25;;;;;;;10.45;5.95;;;;;;;17.58;88.76;100603.75;5047131;28;20051;-81
2021/06/22 09:05:59;;;;;;;8.38;5.85;;;;;;;17.63;87.15;100596.19;5043380;28;20043;-84
2021/06/22 09:08:31;;;;;;;7.97;4.85;;;;;;;17.78;85.74;100599.34;5048890;28;20039;-81
2021/06/22 09:11:06;;;;;;;7.72;4.85;;;;;;;17.84;85.38;100591.66;5044691;28;20133;-81
2021/06/22 09:13:35;;;;;;;6.95;4.20;;;;;;;17.77;84.53;100593.16;5071366;28;20044;-82
2021/06/22 09:16:02;;;;;;;7.93;5.32;;;;;;;17.94;84.15;100597.81;5057714;28;20044;-81
2021/06/22 09:18:35;;;;;;;12.40;4.30;;;;;;;18.10;83.07;100610.63;5047205;28;20036;-81
2021/06/22 09:21:07;;;;;;;8.75;4.20;;;;;;;18.23;82.39;100611.16;5055758;28;20052;-80
2021/06/22 09:23:37;;;;;;;8.95;4.70;;;;;;;18.20;81.97;100618.59;5049633;28;20044;-80
2021/06/22 09:26:21;;;;;;;7.18;4.57;;;;;;;17.83;84.21;100621.06;5078203;28;20090;-82
2021/06/22 09:28:51;;;;;;;7.20;4.57;;;;;;;18.27;82.24;100621.53;5059041;28;20590;-83
2021/06/22 09:31:23;;;;;;;9.82;4.35;;;;;;;18.36;79.61;100631.34;5056466;28;20032;-81
2021/06/22 09:33:54;;;;;;;8.30;4.25;;;;;;;18.48;80.30;100641.75;5065635;28;20048;-83
2021/06/22 09:36:29;;;;;;;5.78;3.80;;;;;;;18.60;78.25;100646.94;5072616;28;20044;-80
2021/06/22 09:38:57;;;;;;;6.88;4.00;;;;;;;18.81;77.76;100650.28;5066806;28;20048;-82
2021/06/22 09:41:26;;;;;;;8.82;4.00;;;;;;;18.41;77.24;100655.75;5044313;28;20060;-82
2021/06/22 09:44:08;;;;;;;4.88;3.72;;;;;;;18.44;76.85;100664.31;5041664;28;20045;-83
2021/06/22 09:46:46;;;;;;;6.85;4.35;;;;;;;17.84;79.78;100668.03;5053310;28;20290;-81
2021/06/22 09:49:18;;;;;;;5.25;4.70;;;;;;;17.93;79.81;100664.56;5058145;28;20222;-83
2021/06/22 09:52:10;;;;;;;7.78;4.60;;;;;;;18.06;79.51;100662.47;5060811;28;20040;-84
2021/06/22 09:54:52;;;;;;;12.98;4.53;;;;;;;18.23;78.85;100663.59;5066928;28;20106;-81
2021/06/22 09:57:21;;;;;;;9.57;4.68;;;;;;;18.43;79.30;100673.31;5050040;28;20561;-84
2021/06/22 09:59:52;;;;;;;11.15;4.05;;;;;;;18.55;78.77;100666.03;5048399;28;20127;-83
2021/06/22 10:02:23;;;;;;;8.20;3.97;;;;;;;18.68;76.67;100661.22;5063584;28;20098;-80
2021/06/22 10:04:54;;;;;;;12.25;4.68;;;;;;;18.89;75.50;100662.91;5072507;28;20048;-83
2021/06/22 10:07:23;;;;;;;9.57;4.22;;;;;;;19.00;75.01;100654.75;5057209;28;20431;-81
2021/06/22 10:09:53;;;;;;;7.78;4.00;;;;;;;19.05;74.02;100665.84;5044297;28;20037;-80
2021/06/22 10:12:27;;;;;;;5.30;3.47;;;;;;;19.21;73.52;100671.41;5064317;28;20591;-82
2021/06/22 10:14:57;;;;;;;9.77;4.17;;;;;;;19.02;73.62;100679.47;5053460;28;20563;-81
2021/06/22 10:17:26;;;;;;;8.60;4.05;;;;;;;18.66;75.22;100689.88;5045083;28;20480;-81
2021/06/22 10:19:55;;;;;;;9.80;4.10;;;;;;;18.89;76.36;100682.44;5053024;28;20044;-84
2021/06/22 10:22:26;;;;;;;10.13;3.95;;;;;;;19.12;75.81;100688.28;5065974;28;20032;-81
2021/06/22 10:24:56;;;;;;;4.18;2.90;;;;;;;19.40;74.52;100681.16;5066767;28;20055;-82
2021/06/22 10:27:26;;;;;;;10.18;4.65;;;;;;;19.10;74.13;100695.59;5056979;28;20064;-84
2021/06/22 10:29:56;;;;;;;9.07;3.72;;;;;;;19.18;74.88;100685.06;5064697;28;20052;-83
2021/06/22 10:32:25;;;;;;;7.13;4.00;;;;;;;19.04;73.06;100689.97;5077828;28;20078;-84
2021/06/22 10:34:55;;;;;;;9.40;4.50;;;;;;;18.52;75.25;100697.44;5077325;28;20152;-81
2021/06/22 10:37:36;;;;;;;9.85;4.07;;;;;;;18.92;74.67;100700.00;5079173;28;20070;-84
2021/06/22 10:40:14;;;;;;;13.00;4.00;;;;;;;18.90;74.00;100702.78;5062976;28;20177;-82
2021/06/22 10:42:43;;;;;;;9.13;4.18;;;;;;;18.95;74.92;100705.03;5058813;28;20095;-83
2021/06/22 10:45:12;;;;;;;6.43;3.72;;;;;;;18.59;76.27;100709.22;5068804;28;20404;-82
2021/06/22 10:47:40;;;;;;;7.32;3.70;;;;;;;18.52;77.49;100711.63;5066589;28;20059;-81
2021/06/22 10:50:23;;;;;;;7.90;4.38;;;;;;;18.76;76.22;100705.06;5068147;28;20122;-81
2021/06/22 10:52:57;;;;;;;13.45;5.00;;;;;;;18.69;76.91;100702.13;5082519;28;20291;-82
2021/06/22 10:55:27;;;;;;;10.38;4.32;;;;;;;18.45;76.95;100699.81;5048941;28;20044;-80
2021/06/22 10:58:08;;;;;;;7.45;4.78;;;;;;;18.51;76.77;100709.94;5079561;28;20075;-84
2021/06/22 11:00:36;;;;;;;11.43;4.55;;;;;;;18.58;75.94;100707.53;5055821;28;20412;-82
2021/06/22 11:03:08;;;;;;;12.93;4.28;;;;;;;18.77;76.17;100707.56;5061731;28;20036;-82
2021/06/22 11:05:40;;;;;;;7.70;3.40;;;;;;;18.87;75.36;100707.59;5082853;28;20040;-82
2021/06/22 11:08:09;;;;;;;13.80;5.50;;;;;;;19.48;74.26;100697.31;5049230;28;20052;-81
2021/06/22 11:10:37;;;;;;;4.60;3.63;;;;;;;19.79;72.76;100691.72;5060533;28;20087;-84
2021/06/22 11:13:05;;;;;;;9.07;4.10;;;;;;;19.59;73.40;100703.47;5051210;28;20056;-81
2021/06/22 11:15:52;;;;;;;6.82;3.75;;;;;;;19.26;73.32;100697.66;5056134;28;20048;-83
2021/06/22 11:18:20;;;;;;;7.90;4.43;;;;;;;19.02;72.56;100706.16;5044683;28;20092;-80
2021/06/22 11:20:53;;;;;;;7.35;4.03;;;;;;;18.74;76.20;100707.03;5051832;28;20097;-81
2021/06/22 11:23:22;;;;;;;7.53;3.63;;;;;;;18.97;75.90;100714.59;5079105;28;20307;-81
2021/06/22 11:26:03;;;;;;;8.23;3.58;;;;;;;19.14;74.84;100707.69;5039062;28;20143;-82
2021/06/22 11:28:52;;;;;;;7.70;4.07;;;;;;;19.18;73.47;100709.06;5036735;28;20048;-80
2021/06/22 11:31:53;;;;;;;8.52;3.72;;;;;;;18.96;73.28;100710.22;5073822;28;20077;-81
2021/06/22 11:34:24;;;;;;;7.20;3.70;;;;;;;19.24;73.35;100710.31;5060536;28;20124;-82